sensor_id;sensor_type;location;lat;lon;timestamp;P1;durP1;ratioP1;P2;durP2;ratioP2
59038;SDS011;44824;43.376;19.630;2023-03-14T00:01:54;36.92;;;21.13;;
59038;SDS011;44824;43.376;19.630;2023-03-14T00:07:33;38.00;;;21.75;;
59038;SDS011;44824;43.376;19.630;2023-03-14T00:10:00;40.85;;;23.75;;
59038;SDS011;44824;43.376;19.630;2023-03-14T00:12:27;39.53;;;23.95;;
59038;SDS011;44824;43.376;19.630;2023-03-14T00:14:53;46.60;;;27.92;;
59038;SDS011;44824;43.376;19.630;2023-03-14T00:17:26;42.08;;;24.60;;
59038;SDS011;44824;43.376;19.630;2023-03-14T00:20:02;42.42;;;24.17;;
59038;SDS011;44824;43.376;19.630;2023-03-14T00:22:47;46.45;;;26.35;;
59038;SDS011;44824;43.376;19.630;2023-03-14T00:25:36;46.13;;;27.08;;
59038;SDS011;44824;43.376;19.630;2023-03-14T00:28:03;41.88;;;25.23;;
59038;SDS011;44824;43.376;19.630;2023-03-14T00:30:29;42.50;;;23.77;;
59038;SDS011;44824;43.376;19.630;2023-03-14T00:32:55;38.53;;;22.65;;
59038;SDS011;44824;43.376;19.630;2023-03-14T00:35:39;31.35;;;18.63;;
59038;SDS011;44824;43.376;19.630;2023-03-14T00:38:14;28.63;;;16.38;;
59038;SDS011;44824;43.376;19.630;2023-03-14T00:41:03;30.65;;;15.77;;
59038;SDS011;44824;43.376;19.630;2023-03-14T00:44:08;28.35;;;16.58;;
59038;SDS011;44824;43.376;19.630;2023-03-14T00:46:34;28.95;;;16.67;;
59038;SDS011;44824;43.376;19.630;2023-03-14T00:49:04;27.38;;;15.35;;
59038;SDS011;44824;43.376;19.630;2023-03-14T00:51:36;26.40;;;15.65;;
59038;SDS011;44824;43.376;19.630;2023-03-14T00:54:05;26.38;;;15.85;;
59038;SDS011;44824;43.376;19.630;2023-03-14T00:56:31;28.00;;;15.30;;
59038;SDS011;44824;43.376;19.630;2023-03-14T00:59:00;26.90;;;15.02;;
59038;SDS011;44824;43.376;19.630;2023-03-14T01:01:27;26.15;;;15.13;;
59038;SDS011;44824;43.376;19.630;2023-03-14T01:03:56;23.70;;;13.52;;
59038;SDS011;44824;43.376;19.630;2023-03-14T01:06:28;22.92;;;12.68;;
59038;SDS011;44824;43.376;19.630;2023-03-14T01:08:55;23.50;;;12.40;;
59038;SDS011;44824;43.376;19.630;2023-03-14T01:14:11;22.63;;;12.18;;
59038;SDS011;44824;43.376;19.630;2023-03-14T01:16:38;21.35;;;11.57;;
59038;SDS011;44824;43.376;19.630;2023-03-14T01:19:04;19.38;;;11.15;;
59038;SDS011;44824;43.376;19.630;2023-03-14T01:21:31;22.73;;;13.35;;
59038;SDS011;44824;43.376;19.630;2023-03-14T01:24:01;23.75;;;13.52;;
59038;SDS011;44824;43.376;19.630;2023-03-14T01:26:29;26.55;;;14.05;;
59038;SDS011;44824;43.376;19.630;2023-03-14T01:28:55;28.42;;;14.38;;
59038;SDS011;44824;43.376;19.630;2023-03-14T01:31:22;25.50;;;14.47;;
59038;SDS011;44824;43.376;19.630;2023-03-14T01:33:48;26.60;;;15.82;;
59038;SDS011;44824;43.376;19.630;2023-03-14T01:36:14;24.13;;;14.50;;
59038;SDS011;44824;43.376;19.630;2023-03-14T01:38:43;27.65;;;15.35;;
59038;SDS011;44824;43.376;19.630;2023-03-14T01:41:14;29.42;;;16.10;;
59038;SDS011;44824;43.376;19.630;2023-03-14T01:43:40;30.80;;;15.40;;
59038;SDS011;44824;43.376;19.630;2023-03-14T01:54:18;31.98;;;17.13;;
59038;SDS011;44824;43.376;19.630;2023-03-14T01:56:47;28.20;;;16.25;;
59038;SDS011;44824;43.376;19.630;2023-03-14T01:59:14;29.40;;;15.68;;
59038;SDS011;44824;43.376;19.630;2023-03-14T02:01:41;32.35;;;17.08;;
59038;SDS011;44824;43.376;19.630;2023-03-14T02:04:08;42.88;;;21.10;;
59038;SDS011;44824;43.376;19.630;2023-03-14T02:06:58;39.03;;;20.45;;
59038;SDS011;44824;43.376;19.630;2023-03-14T02:09:21;28.85;;;17.95;;
59038;SDS011;44824;43.376;19.630;2023-03-14T02:11:57;28.38;;;17.13;;
59038;SDS011;44824;43.376;19.630;2023-03-14T02:14:30;29.63;;;16.92;;
59038;SDS011;44824;43.376;19.630;2023-03-14T02:17:04;31.75;;;17.73;;
59038;SDS011;44824;43.376;19.630;2023-03-14T02:19:45;29.77;;;16.98;;
59038;SDS011;44824;43.376;19.630;2023-03-14T02:22:15;31.20;;;18.13;;
59038;SDS011;44824;43.376;19.630;2023-03-14T02:27:13;27.25;;;15.95;;
59038;SDS011;44824;43.376;19.630;2023-03-14T02:30:13;25.63;;;14.40;;
59038;SDS011;44824;43.376;19.630;2023-03-14T02:32:54;23.50;;;13.90;;
59038;SDS011;44824;43.376;19.630;2023-03-14T02:35:22;26.63;;;14.10;;
59038;SDS011;44824;43.376;19.630;2023-03-14T02:40:34;24.38;;;13.50;;
59038;SDS011;44824;43.376;19.630;2023-03-14T02:43:00;23.27;;;13.32;;
59038;SDS011;44824;43.376;19.630;2023-03-14T02:45:43;25.88;;;13.38;;
59038;SDS011;44824;43.376;19.630;2023-03-14T02:48:16;22.80;;;10.55;;
59038;SDS011;44824;43.376;19.630;2023-03-14T02:50:45;17.77;;;9.55;;
59038;SDS011;44824;43.376;19.630;2023-03-14T02:53:12;18.63;;;9.55;;
59038;SDS011;44824;43.376;19.630;2023-03-14T02:55:51;19.50;;;10.32;;
59038;SDS011;44824;43.376;19.630;2023-03-14T02:58:18;19.52;;;10.77;;
59038;SDS011;44824;43.376;19.630;2023-03-14T03:00:44;19.05;;;9.65;;
59038;SDS011;44824;43.376;19.630;2023-03-14T03:03:10;19.67;;;11.37;;
59038;SDS011;44824;43.376;19.630;2023-03-14T03:05:36;21.23;;;11.50;;
59038;SDS011;44824;43.376;19.630;2023-03-14T03:08:03;22.25;;;12.32;;
59038;SDS011;44824;43.376;19.630;2023-03-14T03:10:35;20.77;;;11.32;;
59038;SDS011;44824;43.376;19.630;2023-03-14T03:13:10;19.58;;;11.35;;
59038;SDS011;44824;43.376;19.630;2023-03-14T03:15:36;25.65;;;12.32;;
59038;SDS011;44824;43.376;19.630;2023-03-14T03:18:03;20.20;;;10.68;;
59038;SDS011;44824;43.376;19.630;2023-03-14T03:20:33;18.33;;;9.48;;
59038;SDS011;44824;43.376;19.630;2023-03-14T03:22:59;19.10;;;9.93;;
59038;SDS011;44824;43.376;19.630;2023-03-14T03:25:28;15.48;;;7.57;;
59038;SDS011;44824;43.376;19.630;2023-03-14T03:28:15;15.70;;;8.20;;
59038;SDS011;44824;43.376;19.630;2023-03-14T03:30:40;15.80;;;7.82;;
59038;SDS011;44824;43.376;19.630;2023-03-14T03:33:10;14.18;;;7.72;;
59038;SDS011;44824;43.376;19.630;2023-03-14T03:35:43;15.57;;;8.73;;
59038;SDS011;44824;43.376;19.630;2023-03-14T03:38:10;17.27;;;9.57;;
59038;SDS011;44824;43.376;19.630;2023-03-14T03:40:39;15.95;;;8.70;;
59038;SDS011;44824;43.376;19.630;2023-03-14T03:43:05;19.73;;;10.15;;
59038;SDS011;44824;43.376;19.630;2023-03-14T03:45:37;21.73;;;11.00;;
59038;SDS011;44824;43.376;19.630;2023-03-14T03:48:03;14.63;;;8.25;;
59038;SDS011;44824;43.376;19.630;2023-03-14T03:50:29;18.92;;;9.93;;
59038;SDS011;44824;43.376;19.630;2023-03-14T03:52:55;20.92;;;12.02;;
59038;SDS011;44824;43.376;19.630;2023-03-14T03:55:21;21.48;;;12.48;;
59038;SDS011;44824;43.376;19.630;2023-03-14T03:57:47;19.27;;;11.90;;
59038;SDS011;44824;43.376;19.630;2023-03-14T04:00:13;19.50;;;11.60;;
59038;SDS011;44824;43.376;19.630;2023-03-14T04:02:39;18.52;;;12.18;;
59038;SDS011;44824;43.376;19.630;2023-03-14T04:05:05;21.50;;;12.35;;
59038;SDS011;44824;43.376;19.630;2023-03-14T04:07:32;20.42;;;14.27;;
59038;SDS011;44824;43.376;19.630;2023-03-14T04:12:37;20.83;;;14.48;;
59038;SDS011;44824;43.376;19.630;2023-03-14T04:15:03;28.63;;;18.45;;
59038;SDS011;44824;43.376;19.630;2023-03-14T04:17:29;31.30;;;19.70;;
59038;SDS011;44824;43.376;19.630;2023-03-14T04:19:55;31.02;;;18.80;;
59038;SDS011;44824;43.376;19.630;2023-03-14T04:25:24;34.25;;;20.55;;
59038;SDS011;44824;43.376;19.630;2023-03-14T04:27:50;32.67;;;20.85;;
59038;SDS011;44824;43.376;19.630;2023-03-14T04:30:16;39.53;;;25.58;;
59038;SDS011;44824;43.376;19.630;2023-03-14T04:32:42;40.33;;;24.48;;
59038;SDS011;44824;43.376;19.630;2023-03-14T04:35:08;38.13;;;23.25;;
59038;SDS011;44824;43.376;19.630;2023-03-14T04:37:35;38.42;;;24.30;;
59038;SDS011;44824;43.376;19.630;2023-03-14T04:40:01;39.88;;;23.88;;
59038;SDS011;44824;43.376;19.630;2023-03-14T04:42:29;42.63;;;24.70;;
59038;SDS011;44824;43.376;19.630;2023-03-14T04:44:55;42.47;;;26.35;;
59038;SDS011;44824;43.376;19.630;2023-03-14T04:47:21;38.83;;;22.70;;
59038;SDS011;44824;43.376;19.630;2023-03-14T04:49:47;44.67;;;26.20;;
59038;SDS011;44824;43.376;19.630;2023-03-14T04:52:13;29.80;;;17.35;;
59038;SDS011;44824;43.376;19.630;2023-03-14T04:54:39;28.50;;;17.35;;
59038;SDS011;44824;43.376;19.630;2023-03-14T04:57:05;27.65;;;16.33;;
59038;SDS011;44824;43.376;19.630;2023-03-14T04:59:31;22.88;;;13.52;;
59038;SDS011;44824;43.376;19.630;2023-03-14T05:01:57;22.60;;;12.43;;
59038;SDS011;44824;43.376;19.630;2023-03-14T05:04:23;25.35;;;12.68;;
59038;SDS011;44824;43.376;19.630;2023-03-14T05:06:50;23.70;;;13.90;;
59038;SDS011;44824;43.376;19.630;2023-03-14T05:09:16;23.92;;;14.63;;
59038;SDS011;44824;43.376;19.630;2023-03-14T05:11:42;24.85;;;15.20;;
59038;SDS011;44824;43.376;19.630;2023-03-14T05:14:08;55.28;;;28.15;;
59038;SDS011;44824;43.376;19.630;2023-03-14T05:16:34;46.60;;;25.88;;
59038;SDS011;44824;43.376;19.630;2023-03-14T05:19:00;42.75;;;22.38;;
59038;SDS011;44824;43.376;19.630;2023-03-14T05:21:29;35.85;;;22.00;;
59038;SDS011;44824;43.376;19.630;2023-03-14T05:23:55;39.65;;;22.33;;
59038;SDS011;44824;43.376;19.630;2023-03-14T05:26:34;34.92;;;20.52;;
59038;SDS011;44824;43.376;19.630;2023-03-14T05:29:00;34.15;;;20.00;;
59038;SDS011;44824;43.376;19.630;2023-03-14T05:31:29;44.22;;;27.35;;
59038;SDS011;44824;43.376;19.630;2023-03-14T05:33:58;60.85;;;35.50;;
59038;SDS011;44824;43.376;19.630;2023-03-14T05:36:24;50.25;;;31.42;;
59038;SDS011;44824;43.376;19.630;2023-03-14T05:41:17;58.60;;;35.13;;
59038;SDS011;44824;43.376;19.630;2023-03-14T05:43:43;52.83;;;33.78;;
59038;SDS011;44824;43.376;19.630;2023-03-14T05:51:13;49.42;;;28.88;;
59038;SDS011;44824;43.376;19.630;2023-03-14T05:53:39;56.33;;;29.95;;
59038;SDS011;44824;43.376;19.630;2023-03-14T05:58:45;50.30;;;30.35;;
59038;SDS011;44824;43.376;19.630;2023-03-14T06:13:51;40.60;;;26.95;;
59038;SDS011;44824;43.376;19.630;2023-03-14T06:21:47;48.00;;;28.48;;
59038;SDS011;44824;43.376;19.630;2023-03-14T06:40:17;42.38;;;25.15;;
59038;SDS011;44824;43.376;19.630;2023-03-14T06:59:04;97.67;;;44.73;;
59038;SDS011;44824;43.376;19.630;2023-03-14T07:01:30;94.13;;;44.40;;
59038;SDS011;44824;43.376;19.630;2023-03-14T07:04:15;85.10;;;48.47;;
59038;SDS011;44824;43.376;19.630;2023-03-14T07:30:56;65.45;;;35.63;;
59038;SDS011;44824;43.376;19.630;2023-03-14T08:52:38;16.48;;;10.27;;
59038;SDS011;44824;43.376;19.630;2023-03-14T08:55:06;14.23;;;8.75;;
59038;SDS011;44824;43.376;19.630;2023-03-14T08:57:41;15.98;;;9.07;;
59038;SDS011;44824;43.376;19.630;2023-03-14T09:00:21;17.95;;;8.65;;
59038;SDS011;44824;43.376;19.630;2023-03-14T09:03:08;13.47;;;7.27;;
59038;SDS011;44824;43.376;19.630;2023-03-14T09:05:43;12.68;;;6.60;;
59038;SDS011;44824;43.376;19.630;2023-03-14T09:25:55;10.35;;;6.03;;
59038;SDS011;44824;43.376;19.630;2023-03-14T09:28:51;60.22;;;48.75;;
59038;SDS011;44824;43.376;19.630;2023-03-14T09:31:31;18.23;;;12.45;;
59038;SDS011;44824;43.376;19.630;2023-03-14T09:34:01;13.02;;;8.10;;
59038;SDS011;44824;43.376;19.630;2023-03-14T10:25:32;9.63;;;7.13;;
59038;SDS011;44824;43.376;19.630;2023-03-14T10:28:01;9.07;;;3.40;;
59038;SDS011;44824;43.376;19.630;2023-03-14T10:33:09;7.30;;;2.40;;
59038;SDS011;44824;43.376;19.630;2023-03-14T10:35:39;5.50;;;2.03;;
59038;SDS011;44824;43.376;19.630;2023-03-14T10:43:38;4.83;;;2.00;;
59038;SDS011;44824;43.376;19.630;2023-03-14T10:46:18;6.30;;;3.13;;
59038;SDS011;44824;43.376;19.630;2023-03-14T10:48:59;7.45;;;2.33;;
59038;SDS011;44824;43.376;19.630;2023-03-14T11:14:53;5.72;;;2.40;;
59038;SDS011;44824;43.376;19.630;2023-03-14T11:22:20;6.85;;;2.03;;
59038;SDS011;44824;43.376;19.630;2023-03-14T11:24:55;11.00;;;2.03;;
59038;SDS011;44824;43.376;19.630;2023-03-14T11:35:37;5.10;;;1.70;;
59038;SDS011;44824;43.376;19.630;2023-03-14T11:40:49;5.55;;;1.50;;
59038;SDS011;44824;43.376;19.630;2023-03-14T11:43:34;7.22;;;1.58;;
59038;SDS011;44824;43.376;19.630;2023-03-14T11:46:18;5.93;;;1.70;;
59038;SDS011;44824;43.376;19.630;2023-03-14T11:48:53;8.57;;;1.90;;
59038;SDS011;44824;43.376;19.630;2023-03-14T11:51:24;6.80;;;1.27;;
59038;SDS011;44824;43.376;19.630;2023-03-14T11:53:59;9.57;;;2.30;;
59038;SDS011;44824;43.376;19.630;2023-03-14T11:56:34;13.02;;;3.90;;
59038;SDS011;44824;43.376;19.630;2023-03-14T11:59:04;10.10;;;4.28;;
59038;SDS011;44824;43.376;19.630;2023-03-14T12:01:34;7.45;;;2.67;;
59038;SDS011;44824;43.376;19.630;2023-03-14T12:04:04;4.82;;;1.60;;
59038;SDS011;44824;43.376;19.630;2023-03-14T12:06:37;10.63;;;3.30;;
59038;SDS011;44824;43.376;19.630;2023-03-14T12:09:06;12.88;;;4.35;;
59038;SDS011;44824;43.376;19.630;2023-03-14T12:11:38;8.25;;;2.50;;
59038;SDS011;44824;43.376;19.630;2023-03-14T12:16:54;7.18;;;2.00;;
59038;SDS011;44824;43.376;19.630;2023-03-14T12:24:22;11.20;;;3.08;;
59038;SDS011;44824;43.376;19.630;2023-03-14T12:26:55;7.45;;;1.95;;
59038;SDS011;44824;43.376;19.630;2023-03-14T12:29:24;8.45;;;3.03;;
59038;SDS011;44824;43.376;19.630;2023-03-14T12:34:41;6.30;;;2.00;;
59038;SDS011;44824;43.376;19.630;2023-03-14T12:39:53;5.20;;;1.80;;
59038;SDS011;44824;43.376;19.630;2023-03-14T12:45:34;6.80;;;1.73;;
59038;SDS011;44824;43.376;19.630;2023-03-14T12:50:07;6.35;;;1.75;;
59038;SDS011;44824;43.376;19.630;2023-03-14T12:55:36;6.85;;;2.97;;
59038;SDS011;44824;43.376;19.630;2023-03-14T13:00:57;7.97;;;2.42;;
59038;SDS011;44824;43.376;19.630;2023-03-14T13:03:26;7.13;;;1.80;;
59038;SDS011;44824;43.376;19.630;2023-03-14T13:06:01;10.77;;;1.40;;
59038;SDS011;44824;43.376;19.630;2023-03-14T13:08:33;7.55;;;1.83;;
59038;SDS011;44824;43.376;19.630;2023-03-14T13:11:00;4.65;;;1.30;;
59038;SDS011;44824;43.376;19.630;2023-03-14T13:13:27;6.57;;;1.90;;
59038;SDS011;44824;43.376;19.630;2023-03-14T13:15:54;7.65;;;1.90;;
59038;SDS011;44824;43.376;19.630;2023-03-14T13:21:11;16.17;;;2.70;;
59038;SDS011;44824;43.376;19.630;2023-03-14T13:23:54;8.07;;;2.58;;
59038;SDS011;44824;43.376;19.630;2023-03-14T13:26:25;7.90;;;1.77;;
59038;SDS011;44824;43.376;19.630;2023-03-14T13:28:51;8.80;;;1.80;;
59038;SDS011;44824;43.376;19.630;2023-03-14T13:31:22;15.43;;;2.55;;
59038;SDS011;44824;43.376;19.630;2023-03-14T13:34:06;14.98;;;1.90;;
59038;SDS011;44824;43.376;19.630;2023-03-14T13:36:36;8.77;;;2.50;;
59038;SDS011;44824;43.376;19.630;2023-03-14T13:44:54;7.63;;;2.28;;
59038;SDS011;44824;43.376;19.630;2023-03-14T13:47:21;9.35;;;5.55;;
59038;SDS011;44824;43.376;19.630;2023-03-14T13:49:48;9.02;;;3.97;;
59038;SDS011;44824;43.376;19.630;2023-03-14T13:54:52;11.77;;;4.07;;
59038;SDS011;44824;43.376;19.630;2023-03-14T13:57:19;13.90;;;4.20;;
59038;SDS011;44824;43.376;19.630;2023-03-14T13:59:45;9.37;;;4.83;;
59038;SDS011;44824;43.376;19.630;2023-03-14T14:02:23;8.32;;;3.38;;
59038;SDS011;44824;43.376;19.630;2023-03-14T14:07:16;10.40;;;4.80;;
59038;SDS011;44824;43.376;19.630;2023-03-14T14:09:50;10.10;;;4.03;;
59038;SDS011;44824;43.376;19.630;2023-03-14T14:12:36;10.48;;;4.60;;
59038;SDS011;44824;43.376;19.630;2023-03-14T14:15:09;10.13;;;3.60;;
59038;SDS011;44824;43.376;19.630;2023-03-14T14:17:38;11.00;;;5.60;;
59038;SDS011;44824;43.376;19.630;2023-03-14T14:20:06;10.70;;;4.93;;
59038;SDS011;44824;43.376;19.630;2023-03-14T14:22:33;7.28;;;3.38;;
59038;SDS011;44824;43.376;19.630;2023-03-14T14:25:00;11.00;;;4.83;;
59038;SDS011;44824;43.376;19.630;2023-03-14T14:27:32;10.35;;;5.00;;
59038;SDS011;44824;43.376;19.630;2023-03-14T14:33:06;9.23;;;4.68;;
59038;SDS011;44824;43.376;19.630;2023-03-14T14:35:34;10.32;;;3.42;;
59038;SDS011;44824;43.376;19.630;2023-03-14T14:38:19;10.10;;;4.15;;
59038;SDS011;44824;43.376;19.630;2023-03-14T14:44:04;8.35;;;3.47;;
59038;SDS011;44824;43.376;19.630;2023-03-14T14:46:46;10.18;;;4.45;;
59038;SDS011;44824;43.376;19.630;2023-03-14T14:49:13;7.72;;;3.40;;
59038;SDS011;44824;43.376;19.630;2023-03-14T14:51:44;8.60;;;4.20;;
59038;SDS011;44824;43.376;19.630;2023-03-14T14:57:18;6.20;;;2.35;;
59038;SDS011;44824;43.376;19.630;2023-03-14T14:59:44;23.08;;;11.73;;
59038;SDS011;44824;43.376;19.630;2023-03-14T15:04:37;29.15;;;14.23;;
59038;SDS011;44824;43.376;19.630;2023-03-14T15:07:03;22.35;;;13.85;;
59038;SDS011;44824;43.376;19.630;2023-03-14T15:12:34;34.25;;;20.60;;
59038;SDS011;44824;43.376;19.630;2023-03-14T15:15:00;22.40;;;12.57;;
59038;SDS011;44824;43.376;19.630;2023-03-14T15:17:26;32.03;;;17.80;;
59038;SDS011;44824;43.376;19.630;2023-03-14T15:19:52;16.85;;;8.00;;
59038;SDS011;44824;43.376;19.630;2023-03-14T15:22:18;9.25;;;3.83;;
59038;SDS011;44824;43.376;19.630;2023-03-14T15:24:45;26.92;;;9.00;;
59038;SDS011;44824;43.376;19.630;2023-03-14T15:27:15;13.57;;;4.82;;
59038;SDS011;44824;43.376;19.630;2023-03-14T15:29:41;7.72;;;3.35;;
59038;SDS011;44824;43.376;19.630;2023-03-14T15:32:14;12.52;;;6.25;;
59038;SDS011;44824;43.376;19.630;2023-03-14T15:34:43;17.75;;;8.25;;
59038;SDS011;44824;43.376;19.630;2023-03-14T15:37:13;26.67;;;10.20;;
59038;SDS011;44824;43.376;19.630;2023-03-14T15:46:01;27.55;;;16.17;;
59038;SDS011;44824;43.376;19.630;2023-03-14T15:48:46;21.88;;;11.50;;
59038;SDS011;44824;43.376;19.630;2023-03-14T15:51:38;36.63;;;20.85;;
59038;SDS011;44824;43.376;19.630;2023-03-14T16:13:02;11.23;;;4.32;;
59038;SDS011;44824;43.376;19.630;2023-03-14T16:28:43;14.80;;;6.80;;
59038;SDS011;44824;43.376;19.630;2023-03-14T16:31:18;18.00;;;9.63;;
59038;SDS011;44824;43.376;19.630;2023-03-14T16:33:55;54.03;;;22.70;;
59038;SDS011;44824;43.376;19.630;2023-03-14T17:03:39;25.33;;;13.95;;
59038;SDS011;44824;43.376;19.630;2023-03-14T17:06:06;67.55;;;40.58;;
59038;SDS011;44824;43.376;19.630;2023-03-14T17:08:47;32.33;;;20.70;;
59038;SDS011;44824;43.376;19.630;2023-03-14T17:11:15;86.45;;;43.20;;
59038;SDS011;44824;43.376;19.630;2023-03-14T17:13:41;75.32;;;35.60;;
59038;SDS011;44824;43.376;19.630;2023-03-14T17:19:18;36.67;;;21.33;;
59038;SDS011;44824;43.376;19.630;2023-03-14T17:21:44;31.38;;;18.65;;
59038;SDS011;44824;43.376;19.630;2023-03-14T17:24:13;150.50;;;83.60;;
59038;SDS011;44824;43.376;19.630;2023-03-14T17:26:51;32.33;;;20.40;;
59038;SDS011;44824;43.376;19.630;2023-03-14T17:29:17;27.45;;;18.05;;
59038;SDS011;44824;43.376;19.630;2023-03-14T17:31:43;21.30;;;14.23;;
59038;SDS011;44824;43.376;19.630;2023-03-14T17:34:09;34.50;;;23.73;;
59038;SDS011;44824;43.376;19.630;2023-03-14T17:36:35;36.85;;;24.77;;
59038;SDS011;44824;43.376;19.630;2023-03-14T17:39:01;37.13;;;23.60;;
59038;SDS011;44824;43.376;19.630;2023-03-14T17:41:27;50.15;;;35.13;;
59038;SDS011;44824;43.376;19.630;2023-03-14T17:43:54;55.28;;;41.42;;
59038;SDS011;44824;43.376;19.630;2023-03-14T17:48:47;62.40;;;38.20;;
59038;SDS011;44824;43.376;19.630;2023-03-14T17:51:13;60.60;;;40.22;;
59038;SDS011;44824;43.376;19.630;2023-03-14T17:53:40;55.58;;;33.42;;
59038;SDS011;44824;43.376;19.630;2023-03-14T17:56:06;60.60;;;38.53;;
59038;SDS011;44824;43.376;19.630;2023-03-14T17:58:33;70.43;;;40.08;;
59038;SDS011;44824;43.376;19.630;2023-03-14T18:01:11;49.17;;;28.17;;
59038;SDS011;44824;43.376;19.630;2023-03-14T18:03:38;60.53;;;29.90;;
59038;SDS011;44824;43.376;19.630;2023-03-14T18:08:31;61.65;;;31.77;;
59038;SDS011;44824;43.376;19.630;2023-03-14T18:10:57;47.30;;;29.65;;
59038;SDS011;44824;43.376;19.630;2023-03-14T18:13:23;44.85;;;25.73;;
59038;SDS011;44824;43.376;19.630;2023-03-14T18:15:53;51.28;;;25.73;;
59038;SDS011;44824;43.376;19.630;2023-03-14T18:21:59;34.63;;;20.40;;
59038;SDS011;44824;43.376;19.630;2023-03-14T18:46:32;35.08;;;18.83;;
59038;SDS011;44824;43.376;19.630;2023-03-14T18:48:58;29.35;;;12.63;;
59038;SDS011;44824;43.376;19.630;2023-03-14T18:51:28;29.40;;;12.85;;
59038;SDS011;44824;43.376;19.630;2023-03-14T18:53:54;27.20;;;12.60;;
59038;SDS011;44824;43.376;19.630;2023-03-14T18:56:28;41.78;;;16.90;;
59038;SDS011;44824;43.376;19.630;2023-03-14T18:58:55;28.08;;;13.70;;
59038;SDS011;44824;43.376;19.630;2023-03-14T19:01:24;25.65;;;13.57;;
59038;SDS011;44824;43.376;19.630;2023-03-14T19:03:55;26.92;;;13.77;;
59038;SDS011;44824;43.376;19.630;2023-03-14T19:06:21;32.20;;;20.65;;
59038;SDS011;44824;43.376;19.630;2023-03-14T19:08:48;25.88;;;13.63;;
59038;SDS011;44824;43.376;19.630;2023-03-14T19:11:15;21.20;;;10.85;;
59038;SDS011;44824;43.376;19.630;2023-03-14T19:13:41;14.00;;;7.30;;
59038;SDS011;44824;43.376;19.630;2023-03-14T19:16:14;24.53;;;12.43;;
59038;SDS011;44824;43.376;19.630;2023-03-14T19:18:40;27.80;;;16.20;;
59038;SDS011;44824;43.376;19.630;2023-03-14T19:21:09;23.15;;;11.02;;
59038;SDS011;44824;43.376;19.630;2023-03-14T19:23:40;19.83;;;12.05;;
59038;SDS011;44824;43.376;19.630;2023-03-14T19:26:09;14.55;;;8.13;;
59038;SDS011;44824;43.376;19.630;2023-03-14T19:31:15;19.10;;;9.32;;
59038;SDS011;44824;43.376;19.630;2023-03-14T19:36:07;33.45;;;16.67;;
59038;SDS011;44824;43.376;19.630;2023-03-14T19:42:14;33.42;;;17.17;;
59038;SDS011;44824;43.376;19.630;2023-03-14T19:44:52;35.88;;;21.58;;
59038;SDS011;44824;43.376;19.630;2023-03-14T19:47:20;89.38;;;42.83;;
59038;SDS011;44824;43.376;19.630;2023-03-14T19:49:55;44.88;;;27.85;;
59038;SDS011;44824;43.376;19.630;2023-03-14T19:52:41;38.25;;;22.60;;
59038;SDS011;44824;43.376;19.630;2023-03-14T19:55:42;44.90;;;23.52;;
59038;SDS011;44824;43.376;19.630;2023-03-14T19:58:19;44.25;;;25.88;;
59038;SDS011;44824;43.376;19.630;2023-03-14T20:01:00;33.47;;;21.58;;
59038;SDS011;44824;43.376;19.630;2023-03-14T20:18:19;32.17;;;18.15;;
59038;SDS011;44824;43.376;19.630;2023-03-14T20:23:16;37.28;;;19.33;;
59038;SDS011;44824;43.376;19.630;2023-03-14T20:25:42;41.20;;;21.13;;
59038;SDS011;44824;43.376;19.630;2023-03-14T20:28:11;30.08;;;16.60;;
59038;SDS011;44824;43.376;19.630;2023-03-14T20:30:37;39.00;;;24.00;;
59038;SDS011;44824;43.376;19.630;2023-03-14T20:33:13;31.05;;;18.00;;
59038;SDS011;44824;43.376;19.630;2023-03-14T20:35:42;37.60;;;16.63;;
59038;SDS011;44824;43.376;19.630;2023-03-14T20:38:14;29.60;;;15.45;;
59038;SDS011;44824;43.376;19.630;2023-03-14T20:40:44;37.40;;;17.40;;
59038;SDS011;44824;43.376;19.630;2023-03-14T20:43:13;37.75;;;20.98;;
59038;SDS011;44824;43.376;19.630;2023-03-14T20:45:39;31.23;;;17.33;;
59038;SDS011;44824;43.376;19.630;2023-03-14T20:48:05;29.20;;;16.83;;
59038;SDS011;44824;43.376;19.630;2023-03-14T20:50:31;26.48;;;12.25;;
59038;SDS011;44824;43.376;19.630;2023-03-14T20:52:57;31.92;;;15.57;;
59038;SDS011;44824;43.376;19.630;2023-03-14T20:55:29;47.38;;;35.78;;
59038;SDS011;44824;43.376;19.630;2023-03-14T21:01:14;29.17;;;17.92;;
59038;SDS011;44824;43.376;19.630;2023-03-14T21:03:40;30.23;;;18.50;;
59038;SDS011;44824;43.376;19.630;2023-03-14T21:06:16;35.90;;;19.63;;
59038;SDS011;44824;43.376;19.630;2023-03-14T21:08:42;34.70;;;20.48;;
59038;SDS011;44824;43.376;19.630;2023-03-14T21:11:35;33.95;;;20.35;;
59038;SDS011;44824;43.376;19.630;2023-03-14T21:14:02;29.85;;;17.60;;
59038;SDS011;44824;43.376;19.630;2023-03-14T21:16:28;35.65;;;19.17;;
59038;SDS011;44824;43.376;19.630;2023-03-14T21:18:55;36.45;;;20.45;;
59038;SDS011;44824;43.376;19.630;2023-03-14T21:21:23;35.13;;;19.80;;
59038;SDS011;44824;43.376;19.630;2023-03-14T21:23:52;34.78;;;21.67;;
59038;SDS011;44824;43.376;19.630;2023-03-14T21:26:18;39.92;;;22.48;;
59038;SDS011;44824;43.376;19.630;2023-03-14T21:28:45;37.10;;;21.92;;
59038;SDS011;44824;43.376;19.630;2023-03-14T21:31:11;41.55;;;23.50;;
59038;SDS011;44824;43.376;19.630;2023-03-14T21:33:52;45.50;;;24.17;;
59038;SDS011;44824;43.376;19.630;2023-03-14T21:36:30;36.17;;;19.98;;
59038;SDS011;44824;43.376;19.630;2023-03-14T21:39:01;34.92;;;18.83;;
59038;SDS011;44824;43.376;19.630;2023-03-14T21:41:27;48.15;;;19.52;;
59038;SDS011;44824;43.376;19.630;2023-03-14T21:46:56;44.58;;;27.83;;
59038;SDS011;44824;43.376;19.630;2023-03-14T21:49:44;43.33;;;23.13;;
59038;SDS011;44824;43.376;19.630;2023-03-14T21:55:20;45.97;;;27.48;;
59038;SDS011;44824;43.376;19.630;2023-03-14T22:10:10;49.63;;;29.80;;
59038;SDS011;44824;43.376;19.630;2023-03-14T22:12:52;57.42;;;31.50;;
59038;SDS011;44824;43.376;19.630;2023-03-14T22:15:24;45.30;;;25.42;;
59038;SDS011;44824;43.376;19.630;2023-03-14T22:17:50;47.22;;;27.88;;
59038;SDS011;44824;43.376;19.630;2023-03-14T22:22:52;57.53;;;31.27;;
59038;SDS011;44824;43.376;19.630;2023-03-14T22:25:18;46.53;;;27.80;;
59038;SDS011;44824;43.376;19.630;2023-03-14T22:27:44;46.58;;;28.27;;
59038;SDS011;44824;43.376;19.630;2023-03-14T22:30:10;54.72;;;27.30;;
59038;SDS011;44824;43.376;19.630;2023-03-14T22:32:50;53.03;;;31.55;;
59038;SDS011;44824;43.376;19.630;2023-03-14T22:35:16;57.17;;;32.33;;
59038;SDS011;44824;43.376;19.630;2023-03-14T22:40:49;49.70;;;29.10;;
59038;SDS011;44824;43.376;19.630;2023-03-14T22:43:21;49.20;;;30.92;;
59038;SDS011;44824;43.376;19.630;2023-03-14T22:46:06;52.67;;;28.92;;
59038;SDS011;44824;43.376;19.630;2023-03-14T22:48:32;48.95;;;26.38;;
59038;SDS011;44824;43.376;19.630;2023-03-14T22:51:08;50.17;;;27.23;;
59038;SDS011;44824;43.376;19.630;2023-03-14T22:53:41;57.15;;;31.48;;
59038;SDS011;44824;43.376;19.630;2023-03-14T22:56:13;61.33;;;34.80;;
59038;SDS011;44824;43.376;19.630;2023-03-14T23:02:00;60.33;;;34.80;;
59038;SDS011;44824;43.376;19.630;2023-03-14T23:04:29;66.30;;;36.08;;